sensor_id;sensor_type;location;lat;lon;timestamp;P1;durP1;ratioP1;P2;durP2;ratioP2
45848;SDS011;31567;54.600;9.842;2023-02-24T00:00:17;6.00;;;1.17;;
45848;SDS011;31567;54.600;9.842;2023-02-24T00:04:11;8.90;;;1.67;;
45848;SDS011;31567;54.600;9.842;2023-02-24T00:07:51;8.40;;;1.25;;
45848;SDS011;31567;54.600;9.842;2023-02-24T00:11:31;8.07;;;1.30;;
45848;SDS011;31567;54.600;9.842;2023-02-24T00:15:11;4.93;;;1.40;;
45848;SDS011;31567;54.600;9.842;2023-02-24T00:18:53;8.57;;;1.20;;
45848;SDS011;31567;54.600;9.842;2023-02-24T00:22:32;9.00;;;1.60;;
45848;SDS011;31567;54.600;9.842;2023-02-24T00:26:13;9.60;;;1.60;;
45848;SDS011;31567;54.600;9.842;2023-02-24T00:29:53;8.98;;;1.23;;
45848;SDS011;31567;54.600;9.842;2023-02-24T00:33:33;7.10;;;1.33;;
45848;SDS011;31567;54.600;9.842;2023-02-24T00:37:13;7.95;;;1.90;;
45848;SDS011;31567;54.600;9.842;2023-02-24T00:40:53;6.55;;;1.00;;
45848;SDS011;31567;54.600;9.842;2023-02-24T00:44:37;7.13;;;1.17;;
45848;SDS011;31567;54.600;9.842;2023-02-24T00:48:22;9.57;;;1.45;;
45848;SDS011;31567;54.600;9.842;2023-02-24T00:52:09;8.00;;;1.52;;
45848;SDS011;31567;54.600;9.842;2023-02-24T00:55:57;7.43;;;0.93;;
45848;SDS011;31567;54.600;9.842;2023-02-24T00:59:40;7.75;;;1.02;;
45848;SDS011;31567;54.600;9.842;2023-02-24T01:03:25;4.50;;;1.00;;
45848;SDS011;31567;54.600;9.842;2023-02-24T01:07:06;6.40;;;1.17;;
45848;SDS011;31567;54.600;9.842;2023-02-24T01:10:57;6.38;;;0.88;;
45848;SDS011;31567;54.600;9.842;2023-02-24T01:14:56;7.60;;;1.20;;
45848;SDS011;31567;54.600;9.842;2023-02-24T01:18:36;5.55;;;1.00;;
45848;SDS011;31567;54.600;9.842;2023-02-24T01:22:16;7.25;;;1.52;;
45848;SDS011;31567;54.600;9.842;2023-02-24T01:25:57;11.65;;;1.73;;
45848;SDS011;31567;54.600;9.842;2023-02-24T01:29:37;8.32;;;1.42;;
45848;SDS011;31567;54.600;9.842;2023-02-24T01:33:17;11.80;;;2.05;;
45848;SDS011;31567;54.600;9.842;2023-02-24T01:36:57;7.80;;;1.05;;
45848;SDS011;31567;54.600;9.842;2023-02-24T01:40:37;6.93;;;1.20;;
45848;SDS011;31567;54.600;9.842;2023-02-24T01:47:57;9.15;;;1.30;;
45848;SDS011;31567;54.600;9.842;2023-02-24T01:51:48;5.82;;;1.10;;
45848;SDS011;31567;54.600;9.842;2023-02-24T01:55:33;8.68;;;1.00;;
45848;SDS011;31567;54.600;9.842;2023-02-24T01:59:18;6.77;;;1.13;;
45848;SDS011;31567;54.600;9.842;2023-02-24T02:03:10;5.82;;;0.93;;
45848;SDS011;31567;54.600;9.842;2023-02-24T02:07:05;9.82;;;1.17;;
45848;SDS011;31567;54.600;9.842;2023-02-24T02:10:48;5.28;;;1.63;;
45848;SDS011;31567;54.600;9.842;2023-02-24T02:18:24;4.07;;;1.48;;
45848;SDS011;31567;54.600;9.842;2023-02-24T02:26:36;13.07;;;1.00;;
45848;SDS011;31567;54.600;9.842;2023-02-24T02:34:33;5.78;;;0.80;;
45848;SDS011;31567;54.600;9.842;2023-02-24T02:38:27;9.95;;;1.73;;
45848;SDS011;31567;54.600;9.842;2023-02-24T02:42:24;6.10;;;1.05;;
45848;SDS011;31567;54.600;9.842;2023-02-24T02:46:15;8.77;;;1.20;;
45848;SDS011;31567;54.600;9.842;2023-02-24T02:58:08;6.10;;;0.90;;
45848;SDS011;31567;54.600;9.842;2023-02-24T03:01:53;5.07;;;1.20;;
45848;SDS011;31567;54.600;9.842;2023-02-24T03:06:13;11.60;;;1.23;;
45848;SDS011;31567;54.600;9.842;2023-02-24T03:09:52;7.47;;;0.82;;
45848;SDS011;31567;54.600;9.842;2023-02-24T03:13:37;10.80;;;1.00;;
45848;SDS011;31567;54.600;9.842;2023-02-24T03:17:21;11.35;;;1.10;;
45848;SDS011;31567;54.600;9.842;2023-02-24T03:21:07;9.13;;;1.10;;
45848;SDS011;31567;54.600;9.842;2023-02-24T03:24:51;7.85;;;0.88;;
45848;SDS011;31567;54.600;9.842;2023-02-24T03:28:32;4.40;;;0.82;;
45848;SDS011;31567;54.600;9.842;2023-02-24T03:32:23;11.85;;;2.05;;
45848;SDS011;31567;54.600;9.842;2023-02-24T03:36:11;12.23;;;1.30;;
45848;SDS011;31567;54.600;9.842;2023-02-24T03:39:53;6.75;;;1.30;;
45848;SDS011;31567;54.600;9.842;2023-02-24T03:43:38;6.47;;;1.02;;
45848;SDS011;31567;54.600;9.842;2023-02-24T03:47:23;4.93;;;1.13;;
45848;SDS011;31567;54.600;9.842;2023-02-24T03:51:03;9.93;;;1.27;;
45848;SDS011;31567;54.600;9.842;2023-02-24T03:54:48;3.80;;;0.98;;
45848;SDS011;31567;54.600;9.842;2023-02-24T04:03:53;8.48;;;1.20;;
45848;SDS011;31567;54.600;9.842;2023-02-24T04:11:21;12.20;;;1.20;;
45848;SDS011;31567;54.600;9.842;2023-02-24T04:15:25;6.00;;;0.98;;
45848;SDS011;31567;54.600;9.842;2023-02-24T04:19:21;5.47;;;0.90;;
45848;SDS011;31567;54.600;9.842;2023-02-24T04:23:06;9.00;;;0.98;;
45848;SDS011;31567;54.600;9.842;2023-02-24T04:26:50;6.25;;;1.05;;
45848;SDS011;31567;54.600;9.842;2023-02-24T04:30:33;4.35;;;1.63;;
45848;SDS011;31567;54.600;9.842;2023-02-24T04:34:14;8.05;;;1.27;;
45848;SDS011;31567;54.600;9.842;2023-02-24T04:37:57;5.22;;;0.80;;
45848;SDS011;31567;54.600;9.842;2023-02-24T04:41:37;7.30;;;1.00;;
45848;SDS011;31567;54.600;9.842;2023-02-24T04:48:59;6.63;;;1.13;;
45848;SDS011;31567;54.600;9.842;2023-02-24T04:52:40;10.15;;;1.17;;
45848;SDS011;31567;54.600;9.842;2023-02-24T04:56:22;8.43;;;1.20;;
45848;SDS011;31567;54.600;9.842;2023-02-24T05:00:03;8.38;;;1.40;;
45848;SDS011;31567;54.600;9.842;2023-02-24T05:03:58;3.07;;;0.80;;
45848;SDS011;31567;54.600;9.842;2023-02-24T05:07:38;14.70;;;1.00;;
45848;SDS011;31567;54.600;9.842;2023-02-24T05:11:17;9.90;;;2.10;;
45848;SDS011;31567;54.600;9.842;2023-02-24T05:14:57;6.53;;;1.02;;
45848;SDS011;31567;54.600;9.842;2023-02-24T05:18:39;8.95;;;1.42;;
45848;SDS011;31567;54.600;9.842;2023-02-24T05:22:20;6.20;;;1.23;;
45848;SDS011;31567;54.600;9.842;2023-02-24T05:26:01;11.65;;;2.88;;
45848;SDS011;31567;54.600;9.842;2023-02-24T05:29:46;6.22;;;1.65;;
45848;SDS011;31567;54.600;9.842;2023-02-24T05:33:26;7.50;;;1.10;;
45848;SDS011;31567;54.600;9.842;2023-02-24T05:37:07;9.20;;;1.42;;
45848;SDS011;31567;54.600;9.842;2023-02-24T05:40:48;11.90;;;1.65;;
45848;SDS011;31567;54.600;9.842;2023-02-24T05:44:28;3.45;;;0.68;;
45848;SDS011;31567;54.600;9.842;2023-02-24T05:48:10;8.10;;;1.67;;
45848;SDS011;31567;54.600;9.842;2023-02-24T05:51:53;10.60;;;1.25;;
45848;SDS011;31567;54.600;9.842;2023-02-24T05:55:34;10.38;;;1.60;;
45848;SDS011;31567;54.600;9.842;2023-02-24T05:59:14;9.15;;;1.88;;
45848;SDS011;31567;54.600;9.842;2023-02-24T06:03:00;10.85;;;1.17;;
45848;SDS011;31567;54.600;9.842;2023-02-24T06:06:46;7.57;;;1.20;;
45848;SDS011;31567;54.600;9.842;2023-02-24T06:10:32;10.63;;;2.03;;
45848;SDS011;31567;54.600;9.842;2023-02-24T06:14:12;6.25;;;1.35;;
45848;SDS011;31567;54.600;9.842;2023-02-24T06:17:52;5.90;;;1.20;;
45848;SDS011;31567;54.600;9.842;2023-02-24T06:21:35;9.02;;;1.23;;
45848;SDS011;31567;54.600;9.842;2023-02-24T06:25:20;7.60;;;1.13;;
45848;SDS011;31567;54.600;9.842;2023-02-24T06:29:02;8.50;;;2.85;;
45848;SDS011;31567;54.600;9.842;2023-02-24T06:32:43;4.95;;;1.35;;
45848;SDS011;31567;54.600;9.842;2023-02-24T06:36:22;4.88;;;1.00;;
45848;SDS011;31567;54.600;9.842;2023-02-24T06:40:02;4.43;;;1.08;;
45848;SDS011;31567;54.600;9.842;2023-02-24T06:43:53;4.82;;;1.13;;
45848;SDS011;31567;54.600;9.842;2023-02-24T06:47:33;1.70;;;0.60;;
45848;SDS011;31567;54.600;9.842;2023-02-24T06:51:13;2.63;;;0.75;;
45848;SDS011;31567;54.600;9.842;2023-02-24T06:54:53;5.30;;;0.70;;
45848;SDS011;31567;54.600;9.842;2023-02-24T06:58:33;3.67;;;0.45;;
45848;SDS011;31567;54.600;9.842;2023-02-24T07:02:12;5.15;;;0.70;;
45848;SDS011;31567;54.600;9.842;2023-02-24T07:05:52;1.65;;;0.40;;
45848;SDS011;31567;54.600;9.842;2023-02-24T07:09:48;3.35;;;0.50;;
45848;SDS011;31567;54.600;9.842;2023-02-24T07:13:29;5.90;;;0.68;;
45848;SDS011;31567;54.600;9.842;2023-02-24T07:17:09;5.03;;;0.40;;
45848;SDS011;31567;54.600;9.842;2023-02-24T07:20:52;2.25;;;0.73;;
45848;SDS011;31567;54.600;9.842;2023-02-24T07:24:33;2.42;;;0.68;;
45848;SDS011;31567;54.600;9.842;2023-02-24T07:28:14;4.45;;;0.63;;
45848;SDS011;31567;54.600;9.842;2023-02-24T07:31:58;4.55;;;0.70;;
45848;SDS011;31567;54.600;9.842;2023-02-24T07:35:41;3.50;;;0.90;;
45848;SDS011;31567;54.600;9.842;2023-02-24T07:39:21;6.13;;;1.08;;
45848;SDS011;31567;54.600;9.842;2023-02-24T07:43:02;2.25;;;0.45;;
45848;SDS011;31567;54.600;9.842;2023-02-24T07:46:44;2.50;;;0.68;;
45848;SDS011;31567;54.600;9.842;2023-02-24T07:50:27;4.00;;;0.47;;
45848;SDS011;31567;54.600;9.842;2023-02-24T07:54:10;5.07;;;0.60;;
45848;SDS011;31567;54.600;9.842;2023-02-24T07:57:50;1.23;;;0.35;;
45848;SDS011;31567;54.600;9.842;2023-02-24T08:01:33;5.95;;;0.40;;
45848;SDS011;31567;54.600;9.842;2023-02-24T08:05:17;3.33;;;0.70;;
45848;SDS011;31567;54.600;9.842;2023-02-24T08:08:57;4.25;;;1.05;;
45848;SDS011;31567;54.600;9.842;2023-02-24T08:12:37;6.97;;;0.85;;
45848;SDS011;31567;54.600;9.842;2023-02-24T08:16:20;6.10;;;0.77;;
45848;SDS011;31567;54.600;9.842;2023-02-24T08:20:01;3.38;;;0.88;;
45848;SDS011;31567;54.600;9.842;2023-02-24T08:23:52;9.48;;;1.23;;
45848;SDS011;31567;54.600;9.842;2023-02-24T08:27:33;12.07;;;2.65;;
45848;SDS011;31567;54.600;9.842;2023-02-24T08:31:20;12.30;;;2.47;;
45848;SDS011;31567;54.600;9.842;2023-02-24T08:35:00;14.68;;;4.82;;
45848;SDS011;31567;54.600;9.842;2023-02-24T08:38:42;10.68;;;1.40;;
45848;SDS011;31567;54.600;9.842;2023-02-24T08:42:29;13.75;;;1.98;;
45848;SDS011;31567;54.600;9.842;2023-02-24T08:46:14;16.63;;;2.58;;
45848;SDS011;31567;54.600;9.842;2023-02-24T08:49:59;16.40;;;2.63;;
45848;SDS011;31567;54.600;9.842;2023-02-24T08:53:39;21.98;;;2.38;;
45848;SDS011;31567;54.600;9.842;2023-02-24T08:57:19;24.05;;;2.72;;
45848;SDS011;31567;54.600;9.842;2023-02-24T09:01:03;19.15;;;2.53;;
45848;SDS011;31567;54.600;9.842;2023-02-24T09:04:44;22.92;;;4.35;;
45848;SDS011;31567;54.600;9.842;2023-02-24T09:08:25;23.52;;;3.65;;
45848;SDS011;31567;54.600;9.842;2023-02-24T09:12:10;22.42;;;2.90;;
45848;SDS011;31567;54.600;9.842;2023-02-24T09:16:02;22.33;;;3.33;;
45848;SDS011;31567;54.600;9.842;2023-02-24T09:19:43;23.73;;;3.50;;
45848;SDS011;31567;54.600;9.842;2023-02-24T09:23:24;24.10;;;4.13;;
45848;SDS011;31567;54.600;9.842;2023-02-24T09:27:23;19.23;;;3.17;;
45848;SDS011;31567;54.600;9.842;2023-02-24T09:31:07;25.10;;;3.67;;
45848;SDS011;31567;54.600;9.842;2023-02-24T09:34:46;19.80;;;3.35;;
45848;SDS011;31567;54.600;9.842;2023-02-24T09:38:26;20.45;;;3.75;;
45848;SDS011;31567;54.600;9.842;2023-02-24T09:42:27;19.88;;;3.08;;
45848;SDS011;31567;54.600;9.842;2023-02-24T09:46:10;19.55;;;3.80;;
45848;SDS011;31567;54.600;9.842;2023-02-24T09:49:54;17.98;;;3.25;;
45848;SDS011;31567;54.600;9.842;2023-02-24T09:53:37;20.23;;;2.78;;
45848;SDS011;31567;54.600;9.842;2023-02-24T09:57:19;17.98;;;2.72;;
45848;SDS011;31567;54.600;9.842;2023-02-24T10:13:12;22.23;;;2.90;;
45848;SDS011;31567;54.600;9.842;2023-02-24T10:17:15;19.35;;;2.97;;
45848;SDS011;31567;54.600;9.842;2023-02-24T10:29:21;23.80;;;3.88;;
45848;SDS011;31567;54.600;9.842;2023-02-24T10:33:49;19.83;;;2.88;;
45848;SDS011;31567;54.600;9.842;2023-02-24T10:37:17;9.70;;;2.20;;
45848;SDS011;31567;54.600;9.842;2023-02-24T10:41:00;21.23;;;2.70;;
45848;SDS011;31567;54.600;9.842;2023-02-24T10:44:45;11.48;;;2.30;;
45848;SDS011;31567;54.600;9.842;2023-02-24T10:48:33;18.13;;;2.92;;
45848;SDS011;31567;54.600;9.842;2023-02-24T10:56:15;17.40;;;2.40;;
45848;SDS011;31567;54.600;9.842;2023-02-24T11:00:19;18.90;;;3.97;;
45848;SDS011;31567;54.600;9.842;2023-02-24T11:04:20;16.48;;;2.97;;
45848;SDS011;31567;54.600;9.842;2023-02-24T11:08:10;20.67;;;3.25;;
45848;SDS011;31567;54.600;9.842;2023-02-24T11:12:20;14.95;;;2.58;;
45848;SDS011;31567;54.600;9.842;2023-02-24T11:16:20;17.48;;;2.50;;
45848;SDS011;31567;54.600;9.842;2023-02-24T11:24:21;12.98;;;2.20;;
45848;SDS011;31567;54.600;9.842;2023-02-24T11:28:00;10.10;;;1.65;;
45848;SDS011;31567;54.600;9.842;2023-02-24T11:35:32;15.50;;;2.88;;
45848;SDS011;31567;54.600;9.842;2023-02-24T11:39:39;15.10;;;2.38;;
45848;SDS011;31567;54.600;9.842;2023-02-24T11:43:28;7.70;;;1.60;;
45848;SDS011;31567;54.600;9.842;2023-02-24T11:47:12;7.13;;;1.80;;
45848;SDS011;31567;54.600;9.842;2023-02-24T11:54:36;5.90;;;1.10;;
45848;SDS011;31567;54.600;9.842;2023-02-24T11:58:21;10.20;;;1.27;;
45848;SDS011;31567;54.600;9.842;2023-02-24T12:06:46;6.47;;;1.20;;
45848;SDS011;31567;54.600;9.842;2023-02-24T12:10:35;7.80;;;1.10;;
45848;SDS011;31567;54.600;9.842;2023-02-24T12:18:19;9.57;;;1.27;;
45848;SDS011;31567;54.600;9.842;2023-02-24T12:22:13;8.95;;;1.48;;
45848;SDS011;31567;54.600;9.842;2023-02-24T12:26:12;14.18;;;1.50;;
45848;SDS011;31567;54.600;9.842;2023-02-24T12:34:33;9.07;;;1.15;;
45848;SDS011;31567;54.600;9.842;2023-02-24T12:46:07;12.00;;;1.55;;
45848;SDS011;31567;54.600;9.842;2023-02-24T12:54:21;2.65;;;0.60;;
45848;SDS011;31567;54.600;9.842;2023-02-24T12:58:31;3.95;;;0.65;;
45848;SDS011;31567;54.600;9.842;2023-02-24T13:02:39;3.10;;;0.38;;
45848;SDS011;31567;54.600;9.842;2023-02-24T13:14:09;5.47;;;0.73;;
45848;SDS011;31567;54.600;9.842;2023-02-24T13:17:55;4.93;;;0.45;;
45848;SDS011;31567;54.600;9.842;2023-02-24T13:21:35;4.32;;;0.63;;
45848;SDS011;31567;54.600;9.842;2023-02-24T13:25:17;4.60;;;0.50;;
45848;SDS011;31567;54.600;9.842;2023-02-24T13:29:10;2.03;;;0.32;;
45848;SDS011;31567;54.600;9.842;2023-02-24T13:32:58;5.57;;;1.33;;
45848;SDS011;31567;54.600;9.842;2023-02-24T13:36:58;2.35;;;0.40;;
45848;SDS011;31567;54.600;9.842;2023-02-24T13:40:38;6.80;;;0.40;;
45848;SDS011;31567;54.600;9.842;2023-02-24T13:51:58;2.22;;;0.65;;
45848;SDS011;31567;54.600;9.842;2023-02-24T14:03:40;1.73;;;0.57;;
45848;SDS011;31567;54.600;9.842;2023-02-24T14:07:31;9.75;;;1.00;;
45848;SDS011;31567;54.600;9.842;2023-02-24T14:11:15;8.95;;;1.20;;
45848;SDS011;31567;54.600;9.842;2023-02-24T14:14:55;8.07;;;0.80;;
45848;SDS011;31567;54.600;9.842;2023-02-24T14:18:35;6.35;;;1.00;;
45848;SDS011;31567;54.600;9.842;2023-02-24T14:22:16;6.53;;;1.08;;
45848;SDS011;31567;54.600;9.842;2023-02-24T14:29:46;9.32;;;1.88;;
45848;SDS011;31567;54.600;9.842;2023-02-24T14:33:30;8.48;;;1.35;;
45848;SDS011;31567;54.600;9.842;2023-02-24T14:37:15;7.70;;;0.90;;
45848;SDS011;31567;54.600;9.842;2023-02-24T14:40:59;9.15;;;1.30;;
45848;SDS011;31567;54.600;9.842;2023-02-24T14:44:44;7.82;;;1.75;;
45848;SDS011;31567;54.600;9.842;2023-02-24T14:48:30;8.60;;;1.48;;
45848;SDS011;31567;54.600;9.842;2023-02-24T14:56:13;13.85;;;1.75;;
45848;SDS011;31567;54.600;9.842;2023-02-24T14:59:54;10.15;;;1.50;;
45848;SDS011;31567;54.600;9.842;2023-02-24T15:03:46;13.82;;;1.80;;
45848;SDS011;31567;54.600;9.842;2023-02-24T15:07:29;12.10;;;2.40;;
45848;SDS011;31567;54.600;9.842;2023-02-24T15:15:12;10.27;;;2.33;;
45848;SDS011;31567;54.600;9.842;2023-02-24T15:18:56;11.63;;;1.88;;
45848;SDS011;31567;54.600;9.842;2023-02-24T15:22:46;8.82;;;2.00;;
45848;SDS011;31567;54.600;9.842;2023-02-24T15:26:29;10.77;;;1.85;;
45848;SDS011;31567;54.600;9.842;2023-02-24T15:30:23;9.63;;;2.58;;
45848;SDS011;31567;54.600;9.842;2023-02-24T15:34:18;10.85;;;1.80;;
45848;SDS011;31567;54.600;9.842;2023-02-24T15:38:06;10.45;;;1.70;;
45848;SDS011;31567;54.600;9.842;2023-02-24T15:42:04;8.57;;;1.40;;
45848;SDS011;31567;54.600;9.842;2023-02-24T15:46:19;12.77;;;3.03;;
45848;SDS011;31567;54.600;9.842;2023-02-24T15:50:02;8.57;;;1.60;;
45848;SDS011;31567;54.600;9.842;2023-02-24T15:53:42;17.58;;;2.25;;
45848;SDS011;31567;54.600;9.842;2023-02-24T15:57:22;12.27;;;1.70;;
45848;SDS011;31567;54.600;9.842;2023-02-24T16:01:02;15.68;;;2.25;;
45848;SDS011;31567;54.600;9.842;2023-02-24T16:04:42;14.05;;;2.55;;
45848;SDS011;31567;54.600;9.842;2023-02-24T16:08:22;14.10;;;2.05;;
45848;SDS011;31567;54.600;9.842;2023-02-24T16:12:06;14.15;;;3.15;;
45848;SDS011;31567;54.600;9.842;2023-02-24T16:15:51;7.72;;;1.67;;
45848;SDS011;31567;54.600;9.842;2023-02-24T16:19:31;15.23;;;2.13;;
45848;SDS011;31567;54.600;9.842;2023-02-24T16:23:11;12.65;;;2.78;;
45848;SDS011;31567;54.600;9.842;2023-02-24T16:26:52;7.88;;;1.77;;
45848;SDS011;31567;54.600;9.842;2023-02-24T16:30:32;9.60;;;1.55;;
45848;SDS011;31567;54.600;9.842;2023-02-24T16:34:13;12.82;;;1.80;;
45848;SDS011;31567;54.600;9.842;2023-02-24T16:37:54;9.02;;;1.88;;
45848;SDS011;31567;54.600;9.842;2023-02-24T16:41:33;11.18;;;1.83;;
45848;SDS011;31567;54.600;9.842;2023-02-24T16:45:13;10.18;;;1.80;;
45848;SDS011;31567;54.600;9.842;2023-02-24T16:48:52;7.97;;;1.73;;
45848;SDS011;31567;54.600;9.842;2023-02-24T16:52:32;11.10;;;1.55;;
45848;SDS011;31567;54.600;9.842;2023-02-24T16:56:12;15.50;;;1.92;;
45848;SDS011;31567;54.600;9.842;2023-02-24T16:59:53;10.32;;;2.28;;
45848;SDS011;31567;54.600;9.842;2023-02-24T17:03:42;10.13;;;2.17;;
45848;SDS011;31567;54.600;9.842;2023-02-24T17:07:23;12.07;;;1.83;;
45848;SDS011;31567;54.600;9.842;2023-02-24T17:11:03;13.93;;;2.80;;
45848;SDS011;31567;54.600;9.842;2023-02-24T17:14:43;12.38;;;1.88;;
45848;SDS011;31567;54.600;9.842;2023-02-24T17:18:23;10.73;;;2.13;;
45848;SDS011;31567;54.600;9.842;2023-02-24T17:22:03;5.55;;;1.55;;
45848;SDS011;31567;54.600;9.842;2023-02-24T17:25:43;5.63;;;1.10;;
45848;SDS011;31567;54.600;9.842;2023-02-24T17:29:24;3.78;;;0.90;;
45848;SDS011;31567;54.600;9.842;2023-02-24T17:33:04;0.15;;;0.15;;
45848;SDS011;31567;54.600;9.842;2023-02-24T17:36:44;2.35;;;0.30;;
45848;SDS011;31567;54.600;9.842;2023-02-24T17:40:23;0.55;;;0.22;;
45848;SDS011;31567;54.600;9.842;2023-02-24T17:44:03;0.93;;;0.43;;
45848;SDS011;31567;54.600;9.842;2023-02-24T17:47:43;1.33;;;0.28;;
45848;SDS011;31567;54.600;9.842;2023-02-24T17:51:22;3.05;;;0.30;;
45848;SDS011;31567;54.600;9.842;2023-02-24T17:55:02;1.58;;;0.60;;
45848;SDS011;31567;54.600;9.842;2023-02-24T17:58:43;0.80;;;0.35;;
45848;SDS011;31567;54.600;9.842;2023-02-24T18:02:23;0.35;;;0.13;;
45848;SDS011;31567;54.600;9.842;2023-02-24T18:06:03;1.27;;;0.20;;
45848;SDS011;31567;54.600;9.842;2023-02-24T18:09:48;1.35;;;0.50;;
45848;SDS011;31567;54.600;9.842;2023-02-24T18:13:28;1.33;;;0.30;;
45848;SDS011;31567;54.600;9.842;2023-02-24T18:17:08;2.03;;;0.32;;
45848;SDS011;31567;54.600;9.842;2023-02-24T18:20:48;1.10;;;0.43;;
45848;SDS011;31567;54.600;9.842;2023-02-24T18:24:28;0.63;;;0.20;;
45848;SDS011;31567;54.600;9.842;2023-02-24T18:28:07;2.58;;;0.57;;
45848;SDS011;31567;54.600;9.842;2023-02-24T18:31:47;0.60;;;0.20;;
45848;SDS011;31567;54.600;9.842;2023-02-24T18:35:28;0.75;;;0.20;;
45848;SDS011;31567;54.600;9.842;2023-02-24T18:39:07;0.73;;;0.20;;
45848;SDS011;31567;54.600;9.842;2023-02-24T18:42:48;1.23;;;0.30;;
45848;SDS011;31567;54.600;9.842;2023-02-24T18:46:28;3.80;;;0.40;;
45848;SDS011;31567;54.600;9.842;2023-02-24T18:50:07;1.58;;;0.40;;
45848;SDS011;31567;54.600;9.842;2023-02-24T18:53:47;1.05;;;0.20;;
45848;SDS011;31567;54.600;9.842;2023-02-24T18:57:27;0.55;;;0.32;;
45848;SDS011;31567;54.600;9.842;2023-02-24T19:01:13;1.65;;;0.47;;
45848;SDS011;31567;54.600;9.842;2023-02-24T19:04:55;1.77;;;0.20;;
45848;SDS011;31567;54.600;9.842;2023-02-24T19:08:35;3.13;;;0.47;;
45848;SDS011;31567;54.600;9.842;2023-02-24T19:12:15;0.32;;;0.13;;
45848;SDS011;31567;54.600;9.842;2023-02-24T19:15:58;1.98;;;0.40;;
45848;SDS011;31567;54.600;9.842;2023-02-24T19:19:38;0.03;;;0.03;;
45848;SDS011;31567;54.600;9.842;2023-02-24T19:23:18;1.60;;;0.40;;
45848;SDS011;31567;54.600;9.842;2023-02-24T19:26:57;2.13;;;0.40;;
45848;SDS011;31567;54.600;9.842;2023-02-24T19:30:37;1.42;;;0.38;;
45848;SDS011;31567;54.600;9.842;2023-02-24T19:34:17;2.33;;;1.05;;
45848;SDS011;31567;54.600;9.842;2023-02-24T19:37:57;0.52;;;0.30;;
45848;SDS011;31567;54.600;9.842;2023-02-24T19:41:36;0.60;;;0.20;;
45848;SDS011;31567;54.600;9.842;2023-02-24T19:45:17;1.25;;;0.32;;
45848;SDS011;31567;54.600;9.842;2023-02-24T19:48:57;2.70;;;0.32;;
45848;SDS011;31567;54.600;9.842;2023-02-24T19:52:37;0.85;;;0.28;;
45848;SDS011;31567;54.600;9.842;2023-02-24T19:56:20;0.32;;;0.30;;
45848;SDS011;31567;54.600;9.842;2023-02-24T20:00:07;1.95;;;0.50;;
45848;SDS011;31567;54.600;9.842;2023-02-24T20:03:52;2.63;;;0.50;;
45848;SDS011;31567;54.600;9.842;2023-02-24T20:07:33;2.72;;;0.60;;
45848;SDS011;31567;54.600;9.842;2023-02-24T20:11:13;0.95;;;0.55;;
45848;SDS011;31567;54.600;9.842;2023-02-24T20:14:53;0.80;;;0.80;;
45848;SDS011;31567;54.600;9.842;2023-02-24T20:18:32;2.78;;;0.70;;
45848;SDS011;31567;54.600;9.842;2023-02-24T20:22:12;1.50;;;0.55;;
45848;SDS011;31567;54.600;9.842;2023-02-24T20:25:52;2.15;;;0.68;;
45848;SDS011;31567;54.600;9.842;2023-02-24T20:29:33;0.75;;;0.55;;
45848;SDS011;31567;54.600;9.842;2023-02-24T20:33:13;1.90;;;0.70;;
45848;SDS011;31567;54.600;9.842;2023-02-24T20:36:55;1.40;;;0.85;;
45848;SDS011;31567;54.600;9.842;2023-02-24T20:40:34;2.05;;;0.70;;
45848;SDS011;31567;54.600;9.842;2023-02-24T20:44:14;2.55;;;0.80;;
45848;SDS011;31567;54.600;9.842;2023-02-24T20:47:54;3.22;;;0.68;;
45848;SDS011;31567;54.600;9.842;2023-02-24T20:51:34;2.42;;;0.70;;
45848;SDS011;31567;54.600;9.842;2023-02-24T20:55:15;3.55;;;0.70;;
45848;SDS011;31567;54.600;9.842;2023-02-24T20:59:04;1.38;;;0.50;;
45848;SDS011;31567;54.600;9.842;2023-02-24T21:02:45;4.03;;;0.47;;
45848;SDS011;31567;54.600;9.842;2023-02-24T21:06:25;2.45;;;1.00;;
45848;SDS011;31567;54.600;9.842;2023-02-24T21:10:05;3.15;;;0.57;;
45848;SDS011;31567;54.600;9.842;2023-02-24T21:13:46;2.50;;;0.40;;
45848;SDS011;31567;54.600;9.842;2023-02-24T21:17:27;2.00;;;1.00;;
45848;SDS011;31567;54.600;9.842;2023-02-24T21:21:07;1.40;;;0.40;;
45848;SDS011;31567;54.600;9.842;2023-02-24T21:24:47;2.42;;;0.60;;
45848;SDS011;31567;54.600;9.842;2023-02-24T21:28:27;1.50;;;0.30;;
45848;SDS011;31567;54.600;9.842;2023-02-24T21:32:07;2.47;;;0.50;;
45848;SDS011;31567;54.600;9.842;2023-02-24T21:36:03;0.95;;;0.45;;
45848;SDS011;31567;54.600;9.842;2023-02-24T21:39:45;5.18;;;0.98;;
45848;SDS011;31567;54.600;9.842;2023-02-24T21:43:24;2.00;;;0.60;;
45848;SDS011;31567;54.600;9.842;2023-02-24T21:47:04;1.02;;;0.60;;
45848;SDS011;31567;54.600;9.842;2023-02-24T21:50:45;3.40;;;0.85;;
45848;SDS011;31567;54.600;9.842;2023-02-24T21:54:24;2.90;;;0.50;;
45848;SDS011;31567;54.600;9.842;2023-02-24T21:58:05;1.40;;;0.60;;
45848;SDS011;31567;54.600;9.842;2023-02-24T22:01:45;2.85;;;0.60;;
45848;SDS011;31567;54.600;9.842;2023-02-24T22:05:25;2.88;;;0.88;;
45848;SDS011;31567;54.600;9.842;2023-02-24T22:09:06;2.22;;;0.43;;
45848;SDS011;31567;54.600;9.842;2023-02-24T22:12:48;3.13;;;0.70;;
45848;SDS011;31567;54.600;9.842;2023-02-24T22:16:28;1.73;;;0.50;;
45848;SDS011;31567;54.600;9.842;2023-02-24T22:20:09;0.85;;;0.45;;
45848;SDS011;31567;54.600;9.842;2023-02-24T22:23:53;1.95;;;0.40;;
45848;SDS011;31567;54.600;9.842;2023-02-24T22:27:35;3.08;;;1.02;;
45848;SDS011;31567;54.600;9.842;2023-02-24T22:31:16;2.60;;;0.80;;
45848;SDS011;31567;54.600;9.842;2023-02-24T22:34:59;4.97;;;0.80;;
45848;SDS011;31567;54.600;9.842;2023-02-24T22:38:39;5.78;;;0.98;;
45848;SDS011;31567;54.600;9.842;2023-02-24T22:42:19;4.78;;;0.80;;
45848;SDS011;31567;54.600;9.842;2023-02-24T22:46:23;5.10;;;0.90;;
45848;SDS011;31567;54.600;9.842;2023-02-24T22:50:01;1.35;;;0.77;;
45848;SDS011;31567;54.600;9.842;2023-02-24T22:53:42;2.42;;;0.57;;
45848;SDS011;31567;54.600;9.842;2023-02-24T22:57:24;3.60;;;1.20;;
45848;SDS011;31567;54.600;9.842;2023-02-24T23:01:15;1.98;;;1.00;;
45848;SDS011;31567;54.600;9.842;2023-02-24T23:04:55;5.20;;;0.98;;
45848;SDS011;31567;54.600;9.842;2023-02-24T23:08:36;0.32;;;0.30;;
45848;SDS011;31567;54.600;9.842;2023-02-24T23:12:16;1.05;;;0.77;;
45848;SDS011;31567;54.600;9.842;2023-02-24T23:15:59;1.45;;;0.90;;
45848;SDS011;31567;54.600;9.842;2023-02-24T23:19:49;4.10;;;1.13;;
45848;SDS011;31567;54.600;9.842;2023-02-24T23:23:29;1.88;;;0.40;;
45848;SDS011;31567;54.600;9.842;2023-02-24T23:27:08;2.47;;;0.90;;
45848;SDS011;31567;54.600;9.842;2023-02-24T23:30:48;0.50;;;0.30;;
45848;SDS011;31567;54.600;9.842;2023-02-24T23:34:28;1.10;;;0.60;;
45848;SDS011;31567;54.600;9.842;2023-02-24T23:38:08;0.85;;;0.47;;
45848;SDS011;31567;54.600;9.842;2023-02-24T23:41:48;1.33;;;0.40;;
45848;SDS011;31567;54.600;9.842;2023-02-24T23:45:30;1.50;;;0.77;;
45848;SDS011;31567;54.600;9.842;2023-02-24T23:49:09;3.20;;;0.70;;
45848;SDS011;31567;54.600;9.842;2023-02-24T23:52:49;1.83;;;1.27;;
45848;SDS011;31567;54.600;9.842;2023-02-24T23:56:29;1.60;;;0.50;;
